createdAt,value
2022-08-21T09:58:03.883Z,98802.66
2022-08-21T10:00:38.557Z,98808.88
2022-08-21T10:03:17.188Z,98809.78
2022-08-21T10:06:21.938Z,98796.16
2022-08-21T10:08:51.008Z,98800.41
2022-08-21T10:11:25.457Z,98793.75
2022-08-21T10:14:09.079Z,98804.91
2022-08-21T10:17:17.846Z,98802.09
2022-08-21T10:20:15.834Z,98796.53
2022-08-21T10:23:29.818Z,98796.19
2022-08-21T10:26:16.482Z,98796.00
2022-08-21T10:29:22.689Z,98788.22
2022-08-21T10:32:26.015Z,98795.41
2022-08-21T10:35:35.192Z,98788.16
2022-08-21T10:38:23.485Z,98691.38
2022-08-21T10:41:11.898Z,98790.66
2022-08-21T10:44:02.281Z,98771.47
2022-08-21T10:47:21.827Z,98784.84
2022-08-21T10:50:19.297Z,98786.69
2022-08-21T10:52:53.212Z,98788.34
2022-08-21T10:55:42.369Z,98773.06
2022-08-21T10:58:28.197Z,98792.31
2022-08-21T11:01:18.177Z,98784.13
2022-08-21T11:03:53.786Z,98775.09
2022-08-21T11:06:32.382Z,98778.97
2022-08-21T11:09:14.887Z,98768.38
2022-08-21T11:12:11.446Z,98776.00
2022-08-21T11:15:29.721Z,98765.97
2022-08-21T11:18:35.036Z,98758.28
2022-08-21T11:21:35.190Z,98758.16
2022-08-21T11:24:40.263Z,98695.34
2022-08-21T11:27:45.497Z,98758.56
2022-08-21T11:30:15.317Z,98763.94
2022-08-21T11:33:16.011Z,98762.50
2022-08-21T11:36:05.352Z,98760.81
2022-08-21T11:38:43.638Z,98716.63
2022-08-21T11:41:31.579Z,98749.13
2022-08-21T11:44:10.447Z,98749.44
2022-08-21T11:47:08.268Z,98748.34
2022-08-21T11:50:18.118Z,98718.28
2022-08-21T11:53:12.749Z,98722.38
2022-08-21T11:56:03.489Z,98728.41
2022-08-21T11:58:33.832Z,98750.75
2022-08-21T12:01:34.341Z,98752.03
2022-08-21T12:04:32.060Z,98749.44
2022-08-21T12:07:15.848Z,98745.72
2022-08-21T12:09:58.323Z,98726.69
2022-08-21T12:12:37.687Z,98740.91
2022-08-21T12:15:21.116Z,98714.13
2022-08-21T12:18:31.747Z,98737.88
2022-08-21T12:21:05.359Z,98740.75
2022-08-21T12:24:16.646Z,98735.50
2022-08-21T12:27:14.933Z,98744.25
2022-08-21T12:29:53.838Z,98721.47
2022-08-21T12:32:44.309Z,98749.19
2022-08-21T12:35:23.261Z,98752.44
2022-08-21T12:38:46.502Z,98758.47
2022-08-21T12:41:23.676Z,98739.84
2022-08-21T12:44:08.410Z,98743.59
2022-08-21T12:46:46.895Z,98749.22
2022-08-21T12:49:25.777Z,98747.25
2022-08-21T12:52:10.759Z,98743.56
2022-08-21T12:54:44.355Z,98744.31
2022-08-21T12:57:28.725Z,98741.22
2022-08-21T13:00:08.181Z,98741.44
2022-08-21T13:02:51.062Z,98743.41
2022-08-21T13:05:41.177Z,98741.75
2022-08-21T13:08:14.029Z,98740.53
2022-08-21T13:10:44.261Z,98736.16
2022-08-21T13:13:28.319Z,98726.16
2022-08-21T13:16:07.463Z,98716.56
2022-08-21T13:19:00.048Z,98726.28
2022-08-21T13:21:41.731Z,98718.00
2022-08-21T13:24:43.988Z,98721.09
2022-08-21T13:27:29.444Z,98720.66
2022-08-21T13:30:11.846Z,98718.03
2022-08-21T13:32:48.252Z,98694.31
2022-08-21T13:35:21.512Z,98725.34
2022-08-21T13:37:53.269Z,98711.06
2022-08-21T13:40:40.236Z,98726.47
2022-08-21T13:43:23.423Z,98719.28
2022-08-21T13:45:55.535Z,98729.34
2022-08-21T13:48:29.101Z,98670.72
2022-08-21T13:50:59.073Z,98728.47
2022-08-21T13:53:42.112Z,98741.03
2022-08-21T13:56:10.286Z,98704.91
2022-08-21T13:58:48.106Z,98736.88
2022-08-21T14:01:49.670Z,98740.53
2022-08-21T14:04:27.872Z,98733.22
2022-08-21T14:06:56.969Z,98738.81
2022-08-21T14:09:44.095Z,98736.06
2022-08-21T14:12:50.301Z,98729.47
2022-08-21T14:15:25.622Z,98730.28
2022-08-21T14:17:53.838Z,98719.44
2022-08-21T14:20:36.190Z,98702.50
2022-08-21T14:23:05.134Z,98720.59
2022-08-21T14:25:45.050Z,98740.75
2022-08-21T14:28:29.544Z,98746.03
2022-08-21T14:30:58.912Z,98700.88
2022-08-21T14:33:33.716Z,98726.81
2022-08-21T14:36:03.451Z,98736.88
2022-08-21T14:38:31.924Z,98734.28
2022-08-21T14:41:30.480Z,98737.91
2022-08-21T14:44:07.489Z,98746.59
2022-08-21T14:46:45.855Z,98722.09
2022-08-21T14:49:27.726Z,98759.06
2022-08-21T14:51:59.011Z,98756.41
2022-08-21T14:54:32.920Z,98767.81
2022-08-21T14:57:12.021Z,98740.13
2022-08-21T14:59:41.000Z,98760.28
2022-08-21T15:02:10.914Z,98744.84
2022-08-21T15:04:39.073Z,98769.22
2022-08-21T15:07:07.234Z,98763.09
2022-08-21T15:09:35.426Z,98771.41
2022-08-21T15:12:05.300Z,98733.50
2022-08-21T15:14:37.603Z,98766.97
2022-08-21T15:17:08.405Z,98745.78
2022-08-21T15:19:37.105Z,98740.13
2022-08-21T15:22:06.318Z,98769.28
2022-08-21T15:24:44.160Z,98770.31
2022-08-21T15:27:13.541Z,98773.63
2022-08-21T15:29:45.198Z,98767.22
2022-08-21T15:32:30.090Z,98766.06
2022-08-21T15:34:59.021Z,98767.69
2022-08-21T15:37:27.446Z,98759.16
2022-08-21T15:39:55.775Z,98770.97
2022-08-21T15:42:26.144Z,98723.25
2022-08-21T15:44:57.160Z,98752.72
2022-08-21T15:47:38.733Z,98722.88
2022-08-21T15:50:10.694Z,98738.53
2022-08-21T15:52:39.163Z,98765.66
2022-08-21T15:55:09.505Z,98726.59
2022-08-21T15:57:39.290Z,98764.56
2022-08-21T16:00:17.270Z,98726.59
2022-08-21T16:02:52.016Z,98762.25
2022-08-21T16:05:23.092Z,98755.81
2022-08-21T16:07:52.305Z,98767.56
2022-08-21T16:10:27.516Z,98764.31
2022-08-21T16:13:04.486Z,98760.59
2022-08-21T16:15:33.283Z,98738.00
2022-08-21T16:18:01.501Z,98771.00
2022-08-21T16:20:31.218Z,98768.63
2022-08-21T16:23:00.335Z,98756.41
2022-08-21T16:25:29.286Z,98757.22
2022-08-21T16:28:02.093Z,98769.16
2022-08-21T16:30:31.521Z,98754.69
2022-08-21T16:33:03.680Z,98757.41
2022-08-21T16:35:32.112Z,98766.66
2022-08-21T16:38:00.855Z,98729.66
2022-08-21T16:40:30.148Z,98770.56
2022-08-21T16:42:58.513Z,98762.63
2022-08-21T16:45:31.183Z,98772.19
2022-08-21T16:48:04.750Z,98769.38
2022-08-21T16:50:33.094Z,98741.63
2022-08-21T16:53:01.214Z,98752.53
2022-08-21T16:55:29.830Z,98774.47
2022-08-21T16:57:58.253Z,98778.06
2022-08-21T17:00:27.174Z,98769.44
2022-08-21T17:02:58.068Z,98739.56
2022-08-21T17:05:28.167Z,98773.97
2022-08-21T17:07:56.738Z,98770.13
2022-08-21T17:10:25.126Z,98773.41
2022-08-21T17:12:58.878Z,98777.66
2022-08-21T17:15:37.245Z,98777.50
2022-08-21T17:18:08.722Z,98758.84
2022-08-21T17:20:42.506Z,98771.56
2022-08-21T17:23:11.496Z,98714.75
2022-08-21T17:25:43.815Z,98777.97
2022-08-21T17:28:26.182Z,98773.75
2022-08-21T17:30:58.905Z,98785.84
2022-08-21T17:33:29.625Z,98751.09
2022-08-21T17:35:58.056Z,98788.81
2022-08-21T17:38:27.890Z,98783.53
2022-08-21T17:40:56.475Z,98794.91
2022-08-21T17:43:25.541Z,98734.34
2022-08-21T17:45:54.142Z,98799.56
2022-08-21T17:48:25.459Z,98806.06
2022-08-21T17:50:53.706Z,98803.47
2022-08-21T17:53:22.430Z,98805.03
2022-08-21T17:55:51.694Z,98811.47
2022-08-21T17:58:19.794Z,98802.31
2022-08-21T18:00:50.222Z,98749.06
2022-08-21T18:03:26.856Z,98777.59
2022-08-21T18:05:57.070Z,98811.00
2022-08-21T18:08:25.786Z,98777.41
2022-08-21T18:10:54.318Z,98819.13
2022-08-21T18:13:37.231Z,98825.78
2022-08-21T18:16:07.706Z,98818.38
2022-08-21T18:18:43.406Z,98813.13
2022-08-21T18:21:11.847Z,98824.44
2022-08-21T18:23:44.465Z,98823.72
2022-08-21T18:26:28.365Z,98731.69
2022-08-21T18:29:00.693Z,98817.66
2022-08-21T18:31:36.205Z,98795.53
2022-08-21T18:34:20.175Z,98835.13
2022-08-21T18:36:52.925Z,98791.66
2022-08-21T18:39:38.244Z,98783.91
2022-08-21T18:42:12.830Z,98831.25
2022-08-21T18:44:44.304Z,98790.47
2022-08-21T18:47:29.859Z,98799.81
2022-08-21T18:49:58.142Z,98832.31
2022-08-21T18:55:17.586Z,98832.44
2022-08-21T18:57:59.307Z,98833.72
2022-08-21T19:00:33.697Z,98806.44
2022-08-21T19:03:02.545Z,98831.28
2022-08-21T19:05:35.311Z,98805.59
2022-08-21T19:08:05.008Z,98809.56
2022-08-21T19:10:34.059Z,98806.16
2022-08-21T19:13:04.741Z,98831.00
2022-08-21T19:15:39.089Z,98817.81
2022-08-21T19:18:15.255Z,98831.00
2022-08-21T19:20:47.365Z,98827.69
2022-08-21T19:23:17.473Z,98835.94
2022-08-21T19:25:51.699Z,98838.75
2022-08-21T19:28:33.870Z,98835.69
2022-08-21T19:31:19.762Z,98841.09
2022-08-21T19:34:12.181Z,98833.00
2022-08-21T19:36:42.244Z,98837.59
2022-08-21T19:39:12.759Z,98807.03
2022-08-21T19:41:51.189Z,98838.16
2022-08-21T19:44:23.764Z,98834.66
2022-08-21T19:46:55.124Z,98841.22
2022-08-21T19:49:33.910Z,98804.53
2022-08-21T19:52:13.137Z,98811.72
2022-08-21T19:54:42.589Z,98850.66
2022-08-21T19:57:12.385Z,98854.66
2022-08-21T19:59:42.281Z,98826.28
2022-08-21T20:02:14.622Z,98828.06
2022-08-21T20:04:53.601Z,98845.38
2022-08-21T20:07:26.729Z,98832.78
2022-08-21T20:09:56.479Z,98808.50
2022-08-21T20:12:25.366Z,98810.16
2022-08-21T20:14:54.186Z,98808.06
2022-08-21T20:17:25.302Z,98831.84
2022-08-21T20:22:42.452Z,98833.97
2022-08-21T20:25:10.867Z,98821.84
2022-08-21T20:27:40.499Z,98820.06
2022-08-21T20:30:10.814Z,98794.53
2022-08-21T20:32:39.171Z,98718.41
2022-08-21T20:37:59.698Z,98836.09
2022-08-21T20:40:32.739Z,98829.59
2022-08-21T20:43:02.851Z,98828.44
2022-08-21T20:45:34.062Z,98809.81
2022-08-21T20:48:25.974Z,98825.72
2022-08-21T20:51:16.197Z,98793.31
2022-08-21T20:53:59.256Z,98825.38
2022-08-21T20:56:58.353Z,98820.66
2022-08-21T20:59:51.865Z,98823.34
2022-08-21T21:02:55.925Z,98829.38
2022-08-21T21:05:28.490Z,98822.44
2022-08-21T21:08:23.992Z,98824.91
2022-08-21T21:11:18.618Z,98833.63
2022-08-21T21:13:55.828Z,98822.06
2022-08-21T21:16:32.369Z,98832.44
2022-08-21T21:19:10.962Z,98816.06
2022-08-21T21:21:57.046Z,98825.38
2022-08-21T21:24:58.049Z,98796.63
2022-08-21T21:27:35.439Z,98837.25
2022-08-21T21:30:27.986Z,98813.78
2022-08-21T21:32:56.524Z,98825.22
2022-08-21T21:35:59.502Z,98831.00
2022-08-21T21:39:11.511Z,98824.38
2022-08-21T21:42:18.396Z,98822.03
2022-08-21T21:45:25.195Z,98795.91
2022-08-21T21:48:28.223Z,98823.47
2022-08-21T21:51:03.584Z,98825.59
2022-08-21T21:54:11.397Z,98831.47
2022-08-21T21:57:12.157Z,98830.38
2022-08-21T21:59:57.391Z,98836.75
2022-08-21T22:02:42.670Z,98834.19
2022-08-21T22:05:49.553Z,98792.88
2022-08-21T22:08:29.952Z,98830.88
2022-08-21T22:11:29.264Z,98732.59
2022-08-21T22:14:10.376Z,98833.00
2022-08-21T22:16:39.529Z,98788.66
2022-08-21T22:19:20.257Z,98824.75
2022-08-21T22:22:12.846Z,98823.34
2022-08-21T22:24:48.491Z,98819.44
2022-08-21T22:27:23.536Z,98803.91
2022-08-21T22:30:00.221Z,98785.72
2022-08-21T22:32:45.902Z,98823.34
2022-08-21T22:35:21.514Z,98810.47
2022-08-21T22:38:00.197Z,98788.28
2022-08-21T22:40:34.994Z,98824.75
2022-08-21T22:43:09.471Z,98827.78
2022-08-21T22:46:01.897Z,98821.66
2022-08-21T22:48:36.344Z,98824.94
2022-08-21T22:51:23.210Z,98823.84
2022-08-21T22:53:57.951Z,98820.94
2022-08-21T22:56:43.293Z,98780.53
2022-08-21T22:59:29.391Z,98812.19
2022-08-21T23:02:02.607Z,98819.94
2022-08-21T23:04:33.789Z,98783.22
2022-08-21T23:07:05.963Z,98823.84
2022-08-21T23:09:45.911Z,98824.44
2022-08-21T23:12:37.446Z,98799.16
2022-08-21T23:15:17.982Z,98835.50
2022-08-21T23:18:33.404Z,98838.28
2022-08-21T23:21:26.653Z,98836.03
2022-08-21T23:24:34.555Z,98834.16
2022-08-21T23:27:44.631Z,98837.72
2022-08-21T23:30:22.147Z,98826.66
2022-08-21T23:33:17.452Z,98837.47
2022-08-21T23:36:43.589Z,98835.66
2022-08-21T23:39:34.459Z,98800.88
2022-08-21T23:42:38.748Z,98803.34
2022-08-21T23:45:54.651Z,98842.03
2022-08-21T23:48:32.578Z,98835.06
2022-08-21T23:51:03.038Z,98834.47
2022-08-21T23:54:07.350Z,98833.31
2022-08-21T23:57:01.697Z,98828.84
2022-08-21T23:59:35.388Z,98834.94
